sensor_id;sensor_type;location;lat;lon;timestamp;P1;durP1;ratioP1;P2;durP2;ratioP2
59147;SDS011;44930;52.878;6.168;2024-03-02T00:00:13;4.78;;;2.35;;
59147;SDS011;44930;52.878;6.168;2024-03-02T00:02:41;3.03;;;2.10;;
59147;SDS011;44930;52.878;6.168;2024-03-02T00:05:11;4.28;;;2.25;;
59147;SDS011;44930;52.878;6.168;2024-03-02T00:07:41;5.72;;;1.80;;
59147;SDS011;44930;52.878;6.168;2024-03-02T00:10:09;5.03;;;2.25;;
59147;SDS011;44930;52.878;6.168;2024-03-02T00:12:36;4.05;;;2.03;;
59147;SDS011;44930;52.878;6.168;2024-03-02T00:15:04;4.13;;;2.22;;
59147;SDS011;44930;52.878;6.168;2024-03-02T00:17:54;3.78;;;2.28;;
59147;SDS011;44930;52.878;6.168;2024-03-02T00:20:23;3.40;;;2.10;;
59147;SDS011;44930;52.878;6.168;2024-03-02T00:22:57;4.13;;;2.25;;
59147;SDS011;44930;52.878;6.168;2024-03-02T00:25:26;7.05;;;2.67;;
59147;SDS011;44930;52.878;6.168;2024-03-02T00:27:52;4.00;;;2.30;;
59147;SDS011;44930;52.878;6.168;2024-03-02T00:33:21;4.55;;;2.20;;
59147;SDS011;44930;52.878;6.168;2024-03-02T00:35:48;5.30;;;2.15;;
59147;SDS011;44930;52.878;6.168;2024-03-02T00:38:15;4.65;;;2.10;;
59147;SDS011;44930;52.878;6.168;2024-03-02T00:40:41;3.95;;;2.30;;
59147;SDS011;44930;52.878;6.168;2024-03-02T00:43:23;4.25;;;2.20;;
59147;SDS011;44930;52.878;6.168;2024-03-02T00:46:13;4.38;;;2.63;;
59147;SDS011;44930;52.878;6.168;2024-03-02T00:48:59;2.50;;;2.10;;
59147;SDS011;44930;52.878;6.168;2024-03-02T00:51:27;4.85;;;2.40;;
59147;SDS011;44930;52.878;6.168;2024-03-02T00:53:54;4.63;;;2.28;;
59147;SDS011;44930;52.878;6.168;2024-03-02T00:56:23;3.28;;;1.90;;
59147;SDS011;44930;52.878;6.168;2024-03-02T00:58:49;4.65;;;2.22;;
59147;SDS011;44930;52.878;6.168;2024-03-02T01:01:15;3.78;;;2.00;;
59147;SDS011;44930;52.878;6.168;2024-03-02T01:03:41;3.20;;;1.70;;
59147;SDS011;44930;52.878;6.168;2024-03-02T01:06:07;4.20;;;2.03;;
59147;SDS011;44930;52.878;6.168;2024-03-02T01:08:36;3.00;;;1.95;;
59147;SDS011;44930;52.878;6.168;2024-03-02T01:11:02;3.42;;;2.00;;
59147;SDS011;44930;52.878;6.168;2024-03-02T01:13:28;5.28;;;2.13;;
59147;SDS011;44930;52.878;6.168;2024-03-02T01:15:54;3.08;;;2.00;;
59147;SDS011;44930;52.878;6.168;2024-03-02T01:18:20;3.88;;;3.15;;
59147;SDS011;44930;52.878;6.168;2024-03-02T01:20:47;4.35;;;2.30;;
59147;SDS011;44930;52.878;6.168;2024-03-02T01:23:13;5.60;;;2.10;;
59147;SDS011;44930;52.878;6.168;2024-03-02T01:25:39;2.55;;;1.70;;
59147;SDS011;44930;52.878;6.168;2024-03-02T01:28:05;2.90;;;1.80;;
59147;SDS011;44930;52.878;6.168;2024-03-02T01:30:30;2.92;;;1.92;;
59147;SDS011;44930;52.878;6.168;2024-03-02T01:32:56;5.07;;;1.77;;
59147;SDS011;44930;52.878;6.168;2024-03-02T01:35:24;3.08;;;1.98;;
59147;SDS011;44930;52.878;6.168;2024-03-02T01:37:50;5.30;;;2.60;;
59147;SDS011;44930;52.878;6.168;2024-03-02T01:40:15;3.97;;;1.80;;
59147;SDS011;44930;52.878;6.168;2024-03-02T01:42:41;3.83;;;2.15;;
59147;SDS011;44930;52.878;6.168;2024-03-02T01:45:08;3.08;;;1.85;;
59147;SDS011;44930;52.878;6.168;2024-03-02T01:47:34;3.90;;;1.90;;
59147;SDS011;44930;52.878;6.168;2024-03-02T01:50:00;3.15;;;1.83;;
59147;SDS011;44930;52.878;6.168;2024-03-02T01:52:27;4.05;;;2.00;;
59147;SDS011;44930;52.878;6.168;2024-03-02T01:54:52;3.42;;;2.22;;
59147;SDS011;44930;52.878;6.168;2024-03-02T01:57:18;3.60;;;2.05;;
59147;SDS011;44930;52.878;6.168;2024-03-02T01:59:44;4.70;;;2.10;;
59147;SDS011;44930;52.878;6.168;2024-03-02T02:02:12;3.78;;;1.90;;
59147;SDS011;44930;52.878;6.168;2024-03-02T02:04:39;2.88;;;1.65;;
59147;SDS011;44930;52.878;6.168;2024-03-02T02:07:04;2.97;;;1.90;;
59147;SDS011;44930;52.878;6.168;2024-03-02T02:09:31;3.42;;;1.88;;
59147;SDS011;44930;52.878;6.168;2024-03-02T02:11:57;2.85;;;1.70;;
59147;SDS011;44930;52.878;6.168;2024-03-02T02:14:23;3.08;;;1.83;;
59147;SDS011;44930;52.878;6.168;2024-03-02T02:16:49;3.88;;;2.10;;
59147;SDS011;44930;52.878;6.168;2024-03-02T02:19:15;6.53;;;2.33;;
59147;SDS011;44930;52.878;6.168;2024-03-02T02:21:44;3.67;;;1.70;;
59147;SDS011;44930;52.878;6.168;2024-03-02T02:24:09;4.13;;;2.03;;
59147;SDS011;44930;52.878;6.168;2024-03-02T02:26:35;3.20;;;2.00;;
59147;SDS011;44930;52.878;6.168;2024-03-02T02:29:01;2.72;;;1.98;;
59147;SDS011;44930;52.878;6.168;2024-03-02T02:31:27;3.22;;;1.83;;
59147;SDS011;44930;52.878;6.168;2024-03-02T02:34:01;3.45;;;1.85;;
59147;SDS011;44930;52.878;6.168;2024-03-02T02:36:26;4.28;;;2.20;;
59147;SDS011;44930;52.878;6.168;2024-03-02T02:38:52;5.03;;;2.38;;
59147;SDS011;44930;52.878;6.168;2024-03-02T02:41:18;3.08;;;1.67;;
59147;SDS011;44930;52.878;6.168;2024-03-02T02:43:44;2.97;;;2.05;;
59147;SDS011;44930;52.878;6.168;2024-03-02T02:46:09;2.60;;;1.50;;
59147;SDS011;44930;52.878;6.168;2024-03-02T02:48:35;4.80;;;1.83;;
59147;SDS011;44930;52.878;6.168;2024-03-02T02:51:01;4.50;;;2.10;;
59147;SDS011;44930;52.878;6.168;2024-03-02T02:53:27;5.47;;;1.70;;
59147;SDS011;44930;52.878;6.168;2024-03-02T02:55:52;2.63;;;1.58;;
59147;SDS011;44930;52.878;6.168;2024-03-02T02:58:18;2.38;;;1.40;;
59147;SDS011;44930;52.878;6.168;2024-03-02T03:00:44;5.30;;;1.88;;
59147;SDS011;44930;52.878;6.168;2024-03-02T03:03:09;3.03;;;1.70;;
59147;SDS011;44930;52.878;6.168;2024-03-02T03:05:35;4.78;;;1.60;;
59147;SDS011;44930;52.878;6.168;2024-03-02T03:08:01;3.20;;;1.60;;
59147;SDS011;44930;52.878;6.168;2024-03-02T03:10:26;3.13;;;1.80;;
59147;SDS011;44930;52.878;6.168;2024-03-02T03:12:52;2.80;;;1.67;;
59147;SDS011;44930;52.878;6.168;2024-03-02T03:15:21;2.10;;;1.10;;
59147;SDS011;44930;52.878;6.168;2024-03-02T03:17:46;3.03;;;1.70;;
59147;SDS011;44930;52.878;6.168;2024-03-02T03:20:12;4.00;;;2.50;;
59147;SDS011;44930;52.878;6.168;2024-03-02T03:22:39;3.17;;;1.60;;
59147;SDS011;44930;52.878;6.168;2024-03-02T03:25:04;2.88;;;1.40;;
59147;SDS011;44930;52.878;6.168;2024-03-02T03:27:31;4.47;;;1.63;;
59147;SDS011;44930;52.878;6.168;2024-03-02T03:29:57;5.05;;;1.98;;
59147;SDS011;44930;52.878;6.168;2024-03-02T03:32:23;3.65;;;1.63;;
59147;SDS011;44930;52.878;6.168;2024-03-02T03:34:49;4.60;;;1.73;;
59147;SDS011;44930;52.878;6.168;2024-03-02T03:37:15;2.67;;;1.30;;
59147;SDS011;44930;52.878;6.168;2024-03-02T03:39:41;3.78;;;2.03;;
59147;SDS011;44930;52.878;6.168;2024-03-02T03:42:06;3.47;;;1.67;;
59147;SDS011;44930;52.878;6.168;2024-03-02T03:44:32;3.30;;;1.80;;
59147;SDS011;44930;52.878;6.168;2024-03-02T03:46:58;3.17;;;1.95;;
59147;SDS011;44930;52.878;6.168;2024-03-02T03:49:25;2.85;;;1.50;;
59147;SDS011;44930;52.878;6.168;2024-03-02T03:51:51;4.05;;;1.60;;
59147;SDS011;44930;52.878;6.168;2024-03-02T03:54:17;5.00;;;1.30;;
59147;SDS011;44930;52.878;6.168;2024-03-02T03:56:42;4.18;;;1.60;;
59147;SDS011;44930;52.878;6.168;2024-03-02T03:59:08;4.10;;;1.55;;
59147;SDS011;44930;52.878;6.168;2024-03-02T04:01:34;2.47;;;1.63;;
59147;SDS011;44930;52.878;6.168;2024-03-02T04:04:00;3.83;;;1.73;;
59147;SDS011;44930;52.878;6.168;2024-03-02T04:06:27;3.13;;;1.30;;
59147;SDS011;44930;52.878;6.168;2024-03-02T04:08:52;4.32;;;1.40;;
59147;SDS011;44930;52.878;6.168;2024-03-02T04:11:18;5.43;;;1.45;;
59147;SDS011;44930;52.878;6.168;2024-03-02T04:13:44;4.38;;;1.65;;
59147;SDS011;44930;52.878;6.168;2024-03-02T04:16:10;2.13;;;1.30;;
59147;SDS011;44930;52.878;6.168;2024-03-02T04:18:35;4.13;;;1.40;;
59147;SDS011;44930;52.878;6.168;2024-03-02T04:21:01;5.13;;;1.40;;
59147;SDS011;44930;52.878;6.168;2024-03-02T04:23:27;1.98;;;1.02;;
59147;SDS011;44930;52.878;6.168;2024-03-02T04:25:52;2.83;;;1.05;;
59147;SDS011;44930;52.878;6.168;2024-03-02T04:28:18;3.25;;;1.10;;
59147;SDS011;44930;52.878;6.168;2024-03-02T04:30:44;4.07;;;1.42;;
59147;SDS011;44930;52.878;6.168;2024-03-02T04:33:09;2.90;;;1.40;;
59147;SDS011;44930;52.878;6.168;2024-03-02T04:35:38;2.28;;;1.13;;
59147;SDS011;44930;52.878;6.168;2024-03-02T04:38:04;4.40;;;1.63;;
59147;SDS011;44930;52.878;6.168;2024-03-02T04:40:30;3.28;;;1.13;;
59147;SDS011;44930;52.878;6.168;2024-03-02T04:42:57;4.00;;;1.20;;
59147;SDS011;44930;52.878;6.168;2024-03-02T04:45:24;1.90;;;0.82;;
59147;SDS011;44930;52.878;6.168;2024-03-02T04:47:49;4.38;;;0.95;;
59147;SDS011;44930;52.878;6.168;2024-03-02T04:50:15;1.73;;;0.90;;
59147;SDS011;44930;52.878;6.168;2024-03-02T04:52:41;1.08;;;0.60;;
59147;SDS011;44930;52.878;6.168;2024-03-02T04:55:06;2.78;;;0.98;;
59147;SDS011;44930;52.878;6.168;2024-03-02T04:57:42;1.73;;;0.80;;
59147;SDS011;44930;52.878;6.168;2024-03-02T05:00:08;0.60;;;0.35;;
59147;SDS011;44930;52.878;6.168;2024-03-02T05:02:35;0.22;;;0.22;;
59147;SDS011;44930;52.878;6.168;2024-03-02T05:05:00;0.75;;;0.43;;
59147;SDS011;44930;52.878;6.168;2024-03-02T05:07:27;0.55;;;0.30;;
59147;SDS011;44930;52.878;6.168;2024-03-02T05:09:53;0.75;;;0.40;;
59147;SDS011;44930;52.878;6.168;2024-03-02T05:12:18;1.40;;;0.40;;
59147;SDS011;44930;52.878;6.168;2024-03-02T05:15:02;0.80;;;0.40;;
59147;SDS011;44930;52.878;6.168;2024-03-02T05:17:28;0.45;;;0.30;;
59147;SDS011;44930;52.878;6.168;2024-03-02T05:19:54;0.98;;;0.40;;
59147;SDS011;44930;52.878;6.168;2024-03-02T05:22:20;0.73;;;0.30;;
59147;SDS011;44930;52.878;6.168;2024-03-02T05:24:46;1.00;;;0.40;;
59147;SDS011;44930;52.878;6.168;2024-03-02T05:27:11;3.00;;;0.60;;
59147;SDS011;44930;52.878;6.168;2024-03-02T05:29:37;0.90;;;0.47;;
59147;SDS011;44930;52.878;6.168;2024-03-02T05:32:03;1.02;;;0.28;;
59147;SDS011;44930;52.878;6.168;2024-03-02T05:34:29;1.95;;;0.40;;
59147;SDS011;44930;52.878;6.168;2024-03-02T05:36:55;1.52;;;0.30;;
59147;SDS011;44930;52.878;6.168;2024-03-02T05:39:22;1.08;;;0.30;;
59147;SDS011;44930;52.878;6.168;2024-03-02T05:41:48;1.00;;;0.50;;
59147;SDS011;44930;52.878;6.168;2024-03-02T05:44:13;1.35;;;0.70;;
59147;SDS011;44930;52.878;6.168;2024-03-02T05:46:40;1.27;;;0.40;;
59147;SDS011;44930;52.878;6.168;2024-03-02T05:49:07;1.10;;;0.52;;
59147;SDS011;44930;52.878;6.168;2024-03-02T05:51:33;1.60;;;0.30;;
59147;SDS011;44930;52.878;6.168;2024-03-02T05:53:58;0.98;;;0.50;;
59147;SDS011;44930;52.878;6.168;2024-03-02T05:56:24;0.85;;;0.45;;
59147;SDS011;44930;52.878;6.168;2024-03-02T05:58:50;1.20;;;0.50;;
59147;SDS011;44930;52.878;6.168;2024-03-02T06:01:39;1.85;;;0.40;;
59147;SDS011;44930;52.878;6.168;2024-03-02T06:04:06;0.30;;;0.30;;
59147;SDS011;44930;52.878;6.168;2024-03-02T06:06:31;0.85;;;0.40;;
59147;SDS011;44930;52.878;6.168;2024-03-02T06:08:59;0.60;;;0.40;;
59147;SDS011;44930;52.878;6.168;2024-03-02T06:11:25;1.10;;;0.50;;
59147;SDS011;44930;52.878;6.168;2024-03-02T06:13:51;0.85;;;0.50;;
59147;SDS011;44930;52.878;6.168;2024-03-02T06:16:16;0.82;;;0.50;;
59147;SDS011;44930;52.878;6.168;2024-03-02T06:18:42;1.65;;;0.57;;
59147;SDS011;44930;52.878;6.168;2024-03-02T06:21:08;1.13;;;0.57;;
59147;SDS011;44930;52.878;6.168;2024-03-02T06:23:34;1.17;;;0.93;;
59147;SDS011;44930;52.878;6.168;2024-03-02T06:26:00;2.63;;;0.60;;
59147;SDS011;44930;52.878;6.168;2024-03-02T06:28:27;0.73;;;0.40;;
59147;SDS011;44930;52.878;6.168;2024-03-02T06:30:53;0.60;;;0.57;;
59147;SDS011;44930;52.878;6.168;2024-03-02T06:33:19;1.40;;;0.80;;
59147;SDS011;44930;52.878;6.168;2024-03-02T06:35:44;2.20;;;0.55;;
59147;SDS011;44930;52.878;6.168;2024-03-02T06:38:10;1.20;;;0.60;;
59147;SDS011;44930;52.878;6.168;2024-03-02T06:40:36;0.80;;;0.45;;
59147;SDS011;44930;52.878;6.168;2024-03-02T06:43:04;1.45;;;0.50;;
59147;SDS011;44930;52.878;6.168;2024-03-02T06:45:30;0.93;;;0.60;;
59147;SDS011;44930;52.878;6.168;2024-03-02T06:47:55;1.13;;;0.65;;
59147;SDS011;44930;52.878;6.168;2024-03-02T06:50:21;1.05;;;0.70;;
59147;SDS011;44930;52.878;6.168;2024-03-02T06:52:47;0.88;;;0.40;;
59147;SDS011;44930;52.878;6.168;2024-03-02T06:55:13;0.77;;;0.68;;
59147;SDS011;44930;52.878;6.168;2024-03-02T06:57:38;2.65;;;0.70;;
59147;SDS011;44930;52.878;6.168;2024-03-02T07:00:05;1.10;;;0.60;;
59147;SDS011;44930;52.878;6.168;2024-03-02T07:02:33;2.05;;;0.73;;
59147;SDS011;44930;52.878;6.168;2024-03-02T07:04:59;1.15;;;0.55;;
59147;SDS011;44930;52.878;6.168;2024-03-02T07:07:25;3.45;;;0.70;;
59147;SDS011;44930;52.878;6.168;2024-03-02T07:09:51;1.85;;;0.68;;
59147;SDS011;44930;52.878;6.168;2024-03-02T07:12:16;0.82;;;0.50;;
59147;SDS011;44930;52.878;6.168;2024-03-02T07:14:42;1.25;;;0.60;;
59147;SDS011;44930;52.878;6.168;2024-03-02T07:17:26;1.42;;;0.57;;
59147;SDS011;44930;52.878;6.168;2024-03-02T07:19:52;1.85;;;0.80;;
59147;SDS011;44930;52.878;6.168;2024-03-02T07:22:17;1.35;;;0.50;;
59147;SDS011;44930;52.878;6.168;2024-03-02T07:24:43;1.42;;;0.70;;
59147;SDS011;44930;52.878;6.168;2024-03-02T07:27:10;1.92;;;0.88;;
59147;SDS011;44930;52.878;6.168;2024-03-02T07:29:36;5.32;;;0.50;;
59147;SDS011;44930;52.878;6.168;2024-03-02T07:32:02;2.92;;;0.50;;
59147;SDS011;44930;52.878;6.168;2024-03-02T07:34:28;1.40;;;0.70;;
59147;SDS011;44930;52.878;6.168;2024-03-02T07:36:54;1.52;;;0.65;;
59147;SDS011;44930;52.878;6.168;2024-03-02T07:39:20;1.23;;;0.75;;
59147;SDS011;44930;52.878;6.168;2024-03-02T07:41:46;0.95;;;0.50;;
59147;SDS011;44930;52.878;6.168;2024-03-02T07:44:12;1.35;;;0.50;;
59147;SDS011;44930;52.878;6.168;2024-03-02T07:46:43;1.48;;;0.80;;
59147;SDS011;44930;52.878;6.168;2024-03-02T07:49:12;0.93;;;0.50;;
59147;SDS011;44930;52.878;6.168;2024-03-02T07:51:41;2.67;;;0.60;;
59147;SDS011;44930;52.878;6.168;2024-03-02T07:54:07;1.05;;;0.47;;
59147;SDS011;44930;52.878;6.168;2024-03-02T07:56:33;2.08;;;0.75;;
59147;SDS011;44930;52.878;6.168;2024-03-02T07:59:00;1.83;;;1.38;;
59147;SDS011;44930;52.878;6.168;2024-03-02T08:01:32;3.72;;;0.80;;
59147;SDS011;44930;52.878;6.168;2024-03-02T08:03:59;3.10;;;0.75;;
59147;SDS011;44930;52.878;6.168;2024-03-02T08:06:26;2.63;;;0.80;;
59147;SDS011;44930;52.878;6.168;2024-03-02T08:09:01;1.55;;;0.88;;
59147;SDS011;44930;52.878;6.168;2024-03-02T08:11:29;1.88;;;0.57;;
59147;SDS011;44930;52.878;6.168;2024-03-02T08:13:56;3.95;;;0.73;;
59147;SDS011;44930;52.878;6.168;2024-03-02T08:16:22;1.77;;;0.63;;
59147;SDS011;44930;52.878;6.168;2024-03-02T08:18:49;1.15;;;0.45;;
59147;SDS011;44930;52.878;6.168;2024-03-02T08:21:15;2.80;;;0.70;;
59147;SDS011;44930;52.878;6.168;2024-03-02T08:23:42;1.13;;;0.57;;
59147;SDS011;44930;52.878;6.168;2024-03-02T08:26:08;1.98;;;0.85;;
59147;SDS011;44930;52.878;6.168;2024-03-02T08:28:34;3.28;;;0.93;;
59147;SDS011;44930;52.878;6.168;2024-03-02T08:31:02;1.65;;;0.50;;
59147;SDS011;44930;52.878;6.168;2024-03-02T08:33:30;1.70;;;0.50;;
59147;SDS011;44930;52.878;6.168;2024-03-02T08:35:56;1.92;;;0.60;;
59147;SDS011;44930;52.878;6.168;2024-03-02T08:38:21;2.53;;;0.47;;
59147;SDS011;44930;52.878;6.168;2024-03-02T08:40:47;3.60;;;0.75;;
59147;SDS011;44930;52.878;6.168;2024-03-02T08:43:15;2.30;;;0.70;;
59147;SDS011;44930;52.878;6.168;2024-03-02T08:45:41;3.17;;;0.45;;
59147;SDS011;44930;52.878;6.168;2024-03-02T08:48:09;1.10;;;0.50;;
59147;SDS011;44930;52.878;6.168;2024-03-02T08:50:35;1.45;;;0.50;;
59147;SDS011;44930;52.878;6.168;2024-03-02T08:53:02;2.90;;;0.68;;
59147;SDS011;44930;52.878;6.168;2024-03-02T08:55:29;5.22;;;0.60;;
59147;SDS011;44930;52.878;6.168;2024-03-02T08:57:55;3.03;;;1.10;;
59147;SDS011;44930;52.878;6.168;2024-03-02T09:00:21;2.20;;;0.60;;
59147;SDS011;44930;52.878;6.168;2024-03-02T09:02:47;1.20;;;0.50;;
59147;SDS011;44930;52.878;6.168;2024-03-02T09:05:13;1.15;;;0.55;;
59147;SDS011;44930;52.878;6.168;2024-03-02T09:07:39;1.23;;;0.70;;
59147;SDS011;44930;52.878;6.168;2024-03-02T09:10:05;1.80;;;0.80;;
59147;SDS011;44930;52.878;6.168;2024-03-02T09:12:31;2.42;;;0.70;;
59147;SDS011;44930;52.878;6.168;2024-03-02T09:14:57;3.10;;;0.70;;
59147;SDS011;44930;52.878;6.168;2024-03-02T09:17:24;3.00;;;0.60;;
59147;SDS011;44930;52.878;6.168;2024-03-02T09:19:49;2.05;;;0.70;;
59147;SDS011;44930;52.878;6.168;2024-03-02T09:22:18;1.63;;;0.70;;
59147;SDS011;44930;52.878;6.168;2024-03-02T09:24:43;1.88;;;0.70;;
59147;SDS011;44930;52.878;6.168;2024-03-02T09:27:09;1.95;;;0.63;;
59147;SDS011;44930;52.878;6.168;2024-03-02T09:29:35;2.88;;;0.68;;
59147;SDS011;44930;52.878;6.168;2024-03-02T09:32:01;1.77;;;0.57;;
59147;SDS011;44930;52.878;6.168;2024-03-02T09:34:27;1.40;;;0.60;;
59147;SDS011;44930;52.878;6.168;2024-03-02T09:36:53;3.72;;;0.73;;
59147;SDS011;44930;52.878;6.168;2024-03-02T09:39:18;2.50;;;0.73;;
59147;SDS011;44930;52.878;6.168;2024-03-02T09:41:44;3.33;;;0.98;;
59147;SDS011;44930;52.878;6.168;2024-03-02T09:44:10;1.52;;;0.85;;
59147;SDS011;44930;52.878;6.168;2024-03-02T09:46:36;2.88;;;0.80;;
59147;SDS011;44930;52.878;6.168;2024-03-02T09:49:02;2.00;;;0.77;;
59147;SDS011;44930;52.878;6.168;2024-03-02T09:51:27;2.63;;;0.85;;
59147;SDS011;44930;52.878;6.168;2024-03-02T09:53:54;1.30;;;0.73;;
59147;SDS011;44930;52.878;6.168;2024-03-02T09:56:21;3.10;;;0.80;;
59147;SDS011;44930;52.878;6.168;2024-03-02T09:58:47;4.32;;;0.90;;
59147;SDS011;44930;52.878;6.168;2024-03-02T10:01:12;2.72;;;0.90;;
59147;SDS011;44930;52.878;6.168;2024-03-02T10:03:38;2.42;;;0.70;;
59147;SDS011;44930;52.878;6.168;2024-03-02T10:08:59;2.78;;;0.70;;
59147;SDS011;44930;52.878;6.168;2024-03-02T10:11:25;3.25;;;1.00;;
59147;SDS011;44930;52.878;6.168;2024-03-02T10:14:03;2.53;;;0.85;;
59147;SDS011;44930;52.878;6.168;2024-03-02T10:16:36;2.38;;;0.90;;
59147;SDS011;44930;52.878;6.168;2024-03-02T10:19:24;2.78;;;0.75;;
59147;SDS011;44930;52.878;6.168;2024-03-02T10:21:52;2.72;;;0.85;;
59147;SDS011;44930;52.878;6.168;2024-03-02T10:24:23;6.15;;;2.20;;
59147;SDS011;44930;52.878;6.168;2024-03-02T10:26:49;5.22;;;1.30;;
59147;SDS011;44930;52.878;6.168;2024-03-02T10:29:15;6.45;;;1.63;;
59147;SDS011;44930;52.878;6.168;2024-03-02T10:31:41;2.22;;;0.70;;
59147;SDS011;44930;52.878;6.168;2024-03-02T10:34:09;2.47;;;0.80;;
59147;SDS011;44930;52.878;6.168;2024-03-02T10:36:36;2.67;;;0.70;;
59147;SDS011;44930;52.878;6.168;2024-03-02T10:39:03;2.08;;;0.68;;
59147;SDS011;44930;52.878;6.168;2024-03-02T10:41:36;3.13;;;1.05;;
59147;SDS011;44930;52.878;6.168;2024-03-02T10:44:03;5.43;;;2.10;;
59147;SDS011;44930;52.878;6.168;2024-03-02T10:46:30;1.48;;;0.68;;
59147;SDS011;44930;52.878;6.168;2024-03-02T10:48:58;3.70;;;0.80;;
59147;SDS011;44930;52.878;6.168;2024-03-02T10:51:25;2.70;;;0.75;;
59147;SDS011;44930;52.878;6.168;2024-03-02T10:53:57;2.35;;;0.60;;
59147;SDS011;44930;52.878;6.168;2024-03-02T10:56:30;2.58;;;0.77;;
59147;SDS011;44930;52.878;6.168;2024-03-02T10:59:06;2.50;;;0.95;;
59147;SDS011;44930;52.878;6.168;2024-03-02T11:01:38;5.72;;;0.90;;
59147;SDS011;44930;52.878;6.168;2024-03-02T11:04:04;5.25;;;0.80;;
59147;SDS011;44930;52.878;6.168;2024-03-02T11:06:34;4.03;;;0.90;;
59147;SDS011;44930;52.878;6.168;2024-03-02T11:09:05;3.13;;;0.80;;
59147;SDS011;44930;52.878;6.168;2024-03-02T11:11:36;3.10;;;0.60;;
59147;SDS011;44930;52.878;6.168;2024-03-02T11:14:07;6.53;;;0.80;;
59147;SDS011;44930;52.878;6.168;2024-03-02T11:16:37;2.50;;;0.95;;
59147;SDS011;44930;52.878;6.168;2024-03-02T11:19:07;1.48;;;0.57;;
59147;SDS011;44930;52.878;6.168;2024-03-02T11:21:35;6.43;;;0.95;;
59147;SDS011;44930;52.878;6.168;2024-03-02T11:26:46;2.92;;;0.88;;
59147;SDS011;44930;52.878;6.168;2024-03-02T11:29:45;1.92;;;0.98;;
59147;SDS011;44930;52.878;6.168;2024-03-02T11:34:30;3.45;;;0.80;;
59147;SDS011;44930;52.878;6.168;2024-03-02T11:37:03;3.00;;;1.00;;
59147;SDS011;44930;52.878;6.168;2024-03-02T11:39:29;6.38;;;1.65;;
59147;SDS011;44930;52.878;6.168;2024-03-02T11:41:55;5.20;;;0.90;;
59147;SDS011;44930;52.878;6.168;2024-03-02T11:44:22;1.95;;;0.80;;
59147;SDS011;44930;52.878;6.168;2024-03-02T11:46:52;4.25;;;0.90;;
59147;SDS011;44930;52.878;6.168;2024-03-02T11:49:39;3.38;;;0.68;;
59147;SDS011;44930;52.878;6.168;2024-03-02T11:52:12;1.25;;;0.57;;
59147;SDS011;44930;52.878;6.168;2024-03-02T11:54:39;3.28;;;0.90;;
59147;SDS011;44930;52.878;6.168;2024-03-02T11:57:11;3.15;;;0.80;;
59147;SDS011;44930;52.878;6.168;2024-03-02T11:59:38;4.25;;;0.80;;
59147;SDS011;44930;52.878;6.168;2024-03-02T12:02:04;3.40;;;1.20;;
59147;SDS011;44930;52.878;6.168;2024-03-02T12:04:30;3.83;;;1.02;;
59147;SDS011;44930;52.878;6.168;2024-03-02T12:06:59;2.38;;;0.57;;
59147;SDS011;44930;52.878;6.168;2024-03-02T12:09:29;4.68;;;0.82;;
59147;SDS011;44930;52.878;6.168;2024-03-02T12:14:29;4.53;;;1.15;;
59147;SDS011;44930;52.878;6.168;2024-03-02T12:16:56;2.15;;;0.80;;
59147;SDS011;44930;52.878;6.168;2024-03-02T12:19:23;4.30;;;0.93;;
59147;SDS011;44930;52.878;6.168;2024-03-02T12:21:49;2.10;;;1.00;;
59147;SDS011;44930;52.878;6.168;2024-03-02T12:24:15;4.50;;;0.85;;
59147;SDS011;44930;52.878;6.168;2024-03-02T12:26:41;3.05;;;0.90;;
59147;SDS011;44930;52.878;6.168;2024-03-02T12:29:07;2.58;;;1.00;;
59147;SDS011;44930;52.878;6.168;2024-03-02T12:31:33;2.53;;;0.77;;
59147;SDS011;44930;52.878;6.168;2024-03-02T12:34:00;1.63;;;0.60;;
59147;SDS011;44930;52.878;6.168;2024-03-02T12:36:27;5.00;;;1.00;;
59147;SDS011;44930;52.878;6.168;2024-03-02T12:38:53;3.28;;;0.90;;
59147;SDS011;44930;52.878;6.168;2024-03-02T12:41:19;2.75;;;0.70;;
59147;SDS011;44930;52.878;6.168;2024-03-02T12:43:45;2.83;;;0.75;;
59147;SDS011;44930;52.878;6.168;2024-03-02T12:46:11;3.55;;;0.90;;
59147;SDS011;44930;52.878;6.168;2024-03-02T12:48:38;1.35;;;0.55;;
59147;SDS011;44930;52.878;6.168;2024-03-02T12:51:07;2.00;;;0.80;;
59147;SDS011;44930;52.878;6.168;2024-03-02T12:53:33;2.53;;;0.73;;
59147;SDS011;44930;52.878;6.168;2024-03-02T12:55:58;9.48;;;1.55;;
59147;SDS011;44930;52.878;6.168;2024-03-02T12:58:24;3.33;;;0.80;;
59147;SDS011;44930;52.878;6.168;2024-03-02T13:01:05;2.55;;;0.70;;
59147;SDS011;44930;52.878;6.168;2024-03-02T13:03:34;3.92;;;1.00;;
59147;SDS011;44930;52.878;6.168;2024-03-02T13:06:01;4.43;;;1.38;;
59147;SDS011;44930;52.878;6.168;2024-03-02T13:08:27;3.20;;;0.90;;
59147;SDS011;44930;52.878;6.168;2024-03-02T13:10:52;2.03;;;0.70;;
59147;SDS011;44930;52.878;6.168;2024-03-02T13:13:18;2.00;;;0.68;;
59147;SDS011;44930;52.878;6.168;2024-03-02T13:15:43;5.88;;;0.80;;
59147;SDS011;44930;52.878;6.168;2024-03-02T13:18:10;1.35;;;0.57;;
59147;SDS011;44930;52.878;6.168;2024-03-02T13:20:36;2.63;;;0.73;;
59147;SDS011;44930;52.878;6.168;2024-03-02T13:23:02;3.00;;;1.02;;
59147;SDS011;44930;52.878;6.168;2024-03-02T13:25:28;1.92;;;0.80;;
59147;SDS011;44930;52.878;6.168;2024-03-02T13:27:55;10.80;;;1.52;;
59147;SDS011;44930;52.878;6.168;2024-03-02T13:30:21;6.03;;;1.92;;
59147;SDS011;44930;52.878;6.168;2024-03-02T13:32:46;3.38;;;1.00;;
59147;SDS011;44930;52.878;6.168;2024-03-02T13:35:12;1.65;;;0.57;;
59147;SDS011;44930;52.878;6.168;2024-03-02T13:37:38;2.55;;;1.00;;
59147;SDS011;44930;52.878;6.168;2024-03-02T13:40:03;3.38;;;0.90;;
59147;SDS011;44930;52.878;6.168;2024-03-02T13:42:30;1.90;;;0.65;;
59147;SDS011;44930;52.878;6.168;2024-03-02T13:44:56;3.25;;;0.80;;
59147;SDS011;44930;52.878;6.168;2024-03-02T13:47:22;2.22;;;0.68;;
59147;SDS011;44930;52.878;6.168;2024-03-02T13:49:47;2.47;;;0.80;;
59147;SDS011;44930;52.878;6.168;2024-03-02T13:52:14;2.80;;;0.95;;
59147;SDS011;44930;52.878;6.168;2024-03-02T13:54:42;2.65;;;0.90;;
59147;SDS011;44930;52.878;6.168;2024-03-02T13:57:09;2.80;;;0.70;;
59147;SDS011;44930;52.878;6.168;2024-03-02T13:59:36;2.50;;;0.80;;
59147;SDS011;44930;52.878;6.168;2024-03-02T14:02:02;7.80;;;2.35;;
59147;SDS011;44930;52.878;6.168;2024-03-02T14:04:31;1.58;;;0.77;;
59147;SDS011;44930;52.878;6.168;2024-03-02T14:06:58;2.88;;;0.93;;
59147;SDS011;44930;52.878;6.168;2024-03-02T14:09:24;2.60;;;1.58;;
59147;SDS011;44930;52.878;6.168;2024-03-02T14:11:50;3.15;;;0.85;;
59147;SDS011;44930;52.878;6.168;2024-03-02T14:14:16;3.85;;;1.50;;
59147;SDS011;44930;52.878;6.168;2024-03-02T14:16:43;2.75;;;1.38;;
59147;SDS011;44930;52.878;6.168;2024-03-02T14:19:10;6.00;;;1.52;;
59147;SDS011;44930;52.878;6.168;2024-03-02T14:21:36;2.78;;;1.27;;
59147;SDS011;44930;52.878;6.168;2024-03-02T14:24:02;3.15;;;1.30;;
59147;SDS011;44930;52.878;6.168;2024-03-02T14:26:28;1.73;;;1.17;;
59147;SDS011;44930;52.878;6.168;2024-03-02T14:28:54;4.40;;;1.75;;
59147;SDS011;44930;52.878;6.168;2024-03-02T14:31:20;3.08;;;1.15;;
59147;SDS011;44930;52.878;6.168;2024-03-02T14:33:46;3.42;;;1.27;;
59147;SDS011;44930;52.878;6.168;2024-03-02T14:36:12;3.70;;;1.60;;
59147;SDS011;44930;52.878;6.168;2024-03-02T14:38:38;3.50;;;1.88;;
59147;SDS011;44930;52.878;6.168;2024-03-02T14:41:04;3.13;;;1.40;;
59147;SDS011;44930;52.878;6.168;2024-03-02T14:43:30;3.55;;;1.48;;
59147;SDS011;44930;52.878;6.168;2024-03-02T14:45:56;3.78;;;1.83;;
59147;SDS011;44930;52.878;6.168;2024-03-02T14:48:22;3.58;;;1.50;;
59147;SDS011;44930;52.878;6.168;2024-03-02T14:50:48;5.20;;;1.80;;
59147;SDS011;44930;52.878;6.168;2024-03-02T14:53:14;4.32;;;2.63;;
59147;SDS011;44930;52.878;6.168;2024-03-02T14:55:39;3.00;;;2.22;;
59147;SDS011;44930;52.878;6.168;2024-03-02T14:58:05;3.88;;;2.10;;
59147;SDS011;44930;52.878;6.168;2024-03-02T15:00:30;5.03;;;2.30;;